Time;durP1;ratioP1;P1;durP2;ratioP2;P2;SDS_P1;SDS_P2;PMS_P1;PMS_P2;Temp;Humidity;BMP_temperature;BMP_pressure;BME280_temperature;BME280_humidity;BME280_pressure;Samples;Min_cycle;Max_cycle;Signal;HPM_P1;HPM_P2
2021/01/22 00:00:21;;;;;;;144.05;81.22;;;10.70;99.90;;;;;;5071834;28;20041;-75
2021/01/22 00:02:48;;;;;;;156.43;80.30;;;10.70;99.90;;;;;;5072170;28;20093;-75
2021/01/22 00:05:13;;;;;;;149.73;82.93;;;10.80;99.90;;;;;;5072133;28;20048;-73
2021/01/22 00:07:39;;;;;;;159.57;85.00;;;10.70;99.90;;;;;;5072242;28;20703;-75
2021/01/22 00:10:05;;;;;;;151.27;87.57;;;10.70;99.90;;;;;;5072053;28;20024;-76
2021/01/22 00:12:31;;;;;;;156.80;89.78;;;10.70;99.90;;;;;;5072163;28;20032;-76
2021/01/22 00:14:57;;;;;;;182.88;93.25;;;10.70;99.90;;;;;;5071967;28;20385;-74
2021/01/22 00:17:23;;;;;;;170.52;97.50;;;10.80;99.90;;;;;;5066874;28;20024;-74
2021/01/22 00:19:48;;;;;;;210.82;106.15;;;10.70;99.90;;;;;;5072414;28;20023;-75
2021/01/22 00:22:14;;;;;;;205.10;108.00;;;10.70;99.90;;;;;;5071975;28;20496;-74
2021/01/22 00:24:39;;;;;;;219.63;109.57;;;10.70;99.90;;;;;;5071745;28;20028;-72
2021/01/22 00:27:05;;;;;;;212.23;109.85;;;10.70;99.90;;;;;;5072142;28;20021;-71
2021/01/22 00:29:31;;;;;;;201.05;108.72;;;10.70;99.90;;;;;;5072179;28;20024;-71
2021/01/22 00:31:56;;;;;;;202.52;110.78;;;10.70;99.90;;;;;;5071975;28;20163;-71
2021/01/22 00:34:22;;;;;;;213.43;109.93;;;10.70;99.90;;;;;;5071650;28;20107;-72
2021/01/22 00:36:49;;;;;;;209.43;108.28;;;10.70;99.90;;;;;;5070280;28;20036;-72
2021/01/22 00:39:15;;;;;;;219.25;109.78;;;10.70;99.90;;;;;;5072212;28;20028;-71
2021/01/22 00:41:40;;;;;;;214.73;105.03;;;10.70;99.90;;;;;;5071753;28;20017;-72
2021/01/22 00:44:06;;;;;;;139.20;73.10;;;10.70;99.90;;;;;;5071420;28;20035;-71
2021/01/22 00:46:32;;;;;;;140.40;66.53;;;10.70;99.90;;;;;;5071839;28;20368;-71
2021/01/22 00:48:58;;;;;;;138.88;69.15;;;10.70;99.90;;;;;;5071385;28;20385;-72
2021/01/22 00:51:23;;;;;;;147.38;70.53;;;10.70;99.90;;;;;;5071943;28;20032;-71
2021/01/22 00:53:49;;;;;;;105.65;58.35;;;10.80;99.90;;;;;;5071815;28;20044;-71
2021/01/22 00:56:15;;;;;;;89.28;49.70;;;10.80;99.90;;;;;;5072194;28;20016;-71
2021/01/22 00:58:40;;;;;;;85.32;43.83;;;10.80;99.90;;;;;;5071189;28;20109;-72
2021/01/22 01:01:06;;;;;;;96.10;51.38;;;10.90;99.90;;;;;;5071363;28;20024;-71
2021/01/22 01:03:32;;;;;;;122.90;62.10;;;10.90;99.90;;;;;;5071461;28;20047;-71
2021/01/22 01:05:58;;;;;;;126.55;64.78;;;10.90;99.90;;;;;;5071608;28;20021;-71
2021/01/22 01:08:24;;;;;;;125.40;67.05;;;10.90;99.90;;;;;;5072041;28;20027;-71
2021/01/22 01:10:49;;;;;;;114.80;62.83;;;10.90;99.90;;;;;;5070801;28;20036;-71
2021/01/22 01:13:15;;;;;;;108.28;58.35;;;10.90;99.90;;;;;;5075259;28;20118;-72
2021/01/22 01:15:40;;;;;;;90.40;47.25;;;10.90;99.90;;;;;;5074157;28;20036;-71
2021/01/22 01:18:06;;;;;;;58.85;28.85;;;10.90;99.90;;;;;;5074673;28;20107;-71
2021/01/22 01:20:32;;;;;;;51.10;24.27;;;11.00;99.90;;;;;;5075839;28;20016;-72
2021/01/22 01:22:58;;;;;;;66.32;29.10;;;11.10;99.90;;;;;;5075701;28;20523;-72
2021/01/22 01:25:24;;;;;;;56.90;26.77;;;11.10;99.90;;;;;;5075737;28;20024;-72
2021/01/22 01:27:50;;;;;;;60.00;28.13;;;11.20;99.90;;;;;;5075082;28;20028;-72
2021/01/22 01:30:16;;;;;;;48.17;23.85;;;11.20;99.90;;;;;;5068346;28;20105;-72
2021/01/22 01:32:42;;;;;;;60.40;23.42;;;11.30;99.90;;;;;;5055015;28;20041;-72
2021/01/22 01:35:08;;;;;;;48.72;20.48;;;11.30;99.90;;;;;;5054779;28;20090;-72
2021/01/22 01:37:35;;;;;;;42.25;18.50;;;11.40;99.90;;;;;;5055066;28;20083;-72
2021/01/22 01:40:01;;;;;;;47.28;19.63;;;11.40;99.90;;;;;;5054834;28;20025;-73
2021/01/22 01:42:26;;;;;;;50.33;19.30;;;11.50;99.90;;;;;;5054957;28;20040;-72
2021/01/22 01:44:52;;;;;;;46.80;18.10;;;11.50;99.90;;;;;;5053338;28;20108;-72
2021/01/22 01:47:18;;;;;;;38.80;14.18;;;11.50;99.90;;;;;;5054843;28;20063;-70
2021/01/22 01:49:44;;;;;;;53.55;18.48;;;11.60;99.90;;;;;;5055011;28;20101;-72
2021/01/22 01:52:10;;;;;;;46.00;12.55;;;11.70;99.90;;;;;;5054886;28;20051;-71
2021/01/22 01:54:36;;;;;;;36.60;12.35;;;11.80;99.90;;;;;;5054962;28;20040;-71
2021/01/22 01:57:03;;;;;;;35.72;11.63;;;11.90;99.90;;;;;;5054992;28;20025;-72
2021/01/22 01:59:30;;;;;;;37.60;10.13;;;12.00;99.90;;;;;;5054973;28;20491;-71
2021/01/22 02:01:57;;;;;;;31.20;7.35;;;12.00;99.90;;;;;;5054625;28;20031;-71
2021/01/22 02:04:23;;;;;;;36.40;7.75;;;12.20;99.90;;;;;;5055019;28;20076;-71
2021/01/22 02:06:49;;;;;;;27.73;6.05;;;12.30;99.90;;;;;;5055059;28;20461;-72
2021/01/22 02:09:15;;;;;;;28.23;6.20;;;12.40;99.90;;;;;;5054280;28;20029;-72
2021/01/22 02:11:42;;;;;;;34.13;5.95;;;12.60;99.90;;;;;;5054097;28;20028;-72
2021/01/22 02:14:07;;;;;;;19.20;4.78;;;12.60;99.90;;;;;;5054512;28;20029;-72
2021/01/22 02:16:34;;;;;;;24.42;4.85;;;12.70;99.90;;;;;;5054652;28;20083;-72
2021/01/22 02:19:03;;;;;;;34.88;5.63;;;12.80;99.90;;;;;;5054560;28;20028;-72
2021/01/22 02:21:34;;;;;;;26.55;4.85;;;12.90;99.90;;;;;;5054395;28;20025;-71
2021/01/22 02:24:12;;;;;;;29.90;5.40;;;13.00;99.90;;;;;;5053447;28;20033;-73
2021/01/22 02:26:57;;;;;;;25.67;5.32;;;13.10;99.90;;;;;;5054364;28;20377;-72
2021/01/22 02:29:25;;;;;;;28.02;4.28;;;13.20;99.90;;;;;;5053710;28;20533;-72
2021/01/22 02:31:53;;;;;;;33.33;4.32;;;13.20;99.90;;;;;;5053859;28;20036;-72
2021/01/22 02:34:24;;;;;;;26.95;4.72;;;13.30;99.90;;;;;;5054192;28;20032;-76
2021/01/22 02:36:54;;;;;;;33.17;4.57;;;13.30;99.90;;;;;;5054298;28;20017;-75
2021/01/22 02:39:25;;;;;;;18.20;4.38;;;13.40;99.90;;;;;;5054037;28;20048;-75
2021/01/22 02:41:56;;;;;;;25.33;5.68;;;13.40;99.90;;;;;;5053856;28;20477;-75
2021/01/22 02:44:22;;;;;;;24.60;5.32;;;13.40;99.90;;;;;;5054240;28;20083;-73
2021/01/22 02:46:48;;;;;;;40.85;5.30;;;13.40;99.90;;;;;;5054250;28;20060;-73
2021/01/22 02:49:14;;;;;;;30.83;4.45;;;13.40;99.90;;;;;;5053586;28;20025;-72
2021/01/22 02:51:40;;;;;;;21.85;5.03;;;13.40;99.90;;;;;;5053875;28;20131;-76
2021/01/22 02:54:05;;;;;;;24.92;5.38;;;13.50;99.90;;;;;;5053757;28;20025;-76
2021/01/22 02:56:40;;;;;;;36.00;4.40;;;13.50;99.90;;;;;;5053790;28;20021;-75
2021/01/22 02:59:37;;;;;;;21.88;4.18;;;13.60;99.90;;;;;;5053424;28;20025;-76
2021/01/22 03:02:15;;;;;;;33.75;4.25;;;13.60;99.90;;;;;;5059928;28;20124;-75
2021/01/22 03:04:41;;;;;;;24.73;5.20;;;13.60;99.90;;;;;;5073156;28;20016;-76
2021/01/22 03:07:11;;;;;;;32.53;5.15;;;13.60;99.90;;;;;;5073250;28;20025;-75
2021/01/22 03:09:40;;;;;;;20.75;4.28;;;13.60;99.90;;;;;;5072260;28;20557;-76
2021/01/22 03:12:07;;;;;;;25.02;4.75;;;13.60;99.90;;;;;;5073416;28;20158;-77
2021/01/22 03:14:34;;;;;;;25.65;4.20;;;13.70;99.90;;;;;;5073159;28;20025;-76
2021/01/22 03:17:00;;;;;;;21.65;4.20;;;13.70;99.90;;;;;;5070977;28;20071;-75
2021/01/22 03:19:26;;;;;;;20.45;4.15;;;13.70;99.90;;;;;;5072413;28;20616;-75
2021/01/22 03:21:51;;;;;;;18.05;3.47;;;13.70;99.90;;;;;;5072009;28;20048;-76
2021/01/22 03:24:17;;;;;;;22.02;3.83;;;13.80;99.90;;;;;;5073818;28;20495;-76
2021/01/22 03:26:43;;;;;;;25.75;4.20;;;13.70;99.90;;;;;;5082899;28;20107;-76
2021/01/22 03:29:08;;;;;;;35.30;4.80;;;13.70;99.90;;;;;;5071939;28;20032;-77
2021/01/22 03:31:34;;;;;;;17.27;3.45;;;13.70;99.90;;;;;;5072197;28;20490;-75
2021/01/22 03:34:00;;;;;;;29.05;4.55;;;13.70;99.90;;;;;;5071399;28;20064;-72
2021/01/22 03:36:26;;;;;;;27.25;4.88;;;13.70;99.90;;;;;;5071702;28;20013;-73
2021/01/22 03:38:51;;;;;;;22.50;4.57;;;13.70;99.90;;;;;;5072149;28;20066;-76
2021/01/22 03:41:17;;;;;;;32.05;4.45;;;13.70;99.90;;;;;;5071270;28;20028;-76
2021/01/22 03:43:43;;;;;;;22.63;4.15;;;13.70;99.90;;;;;;5072441;28;20019;-74
2021/01/22 03:46:09;;;;;;;32.58;4.20;;;13.60;99.90;;;;;;5072302;28;20527;-74
2021/01/22 03:48:34;;;;;;;25.77;4.10;;;13.50;99.90;;;;;;5071935;28;20024;-74
2021/01/22 03:51:00;;;;;;;23.38;4.30;;;13.40;99.90;;;;;;5071440;28;20034;-73
2021/01/22 03:53:26;;;;;;;22.45;4.45;;;13.30;99.90;;;;;;5071821;28;20381;-75
2021/01/22 03:55:52;;;;;;;26.67;4.13;;;13.10;99.90;;;;;;5072187;28;20021;-75
2021/01/22 03:58:17;;;;;;;40.50;4.07;;;13.00;99.90;;;;;;5071885;28;20468;-75
2021/01/22 04:00:44;;;;;;;28.23;5.13;;;12.90;99.90;;;;;;5071832;28;20082;-75
2021/01/22 04:03:09;;;;;;;29.20;4.45;;;12.80;99.90;;;;;;5071465;28;20394;-75
2021/01/22 04:05:35;;;;;;;25.60;4.30;;;12.70;99.90;;;;;;5071598;28;20024;-76
2021/01/22 04:08:00;;;;;;;36.53;4.25;;;12.60;99.90;;;;;;5071795;28;20132;-75
2021/01/22 04:10:26;;;;;;;27.77;4.72;;;12.50;99.90;;;;;;5071700;28;20522;-76
2021/01/22 04:12:53;;;;;;;29.30;4.70;;;12.40;99.90;;;;;;5071958;28;20028;-76
2021/01/22 04:15:18;;;;;;;21.35;4.15;;;12.40;99.90;;;;;;5071410;28;20056;-75
2021/01/22 04:17:44;;;;;;;22.08;4.95;;;12.30;99.90;;;;;;5071630;28;20109;-75
2021/01/22 04:20:10;;;;;;;35.50;5.45;;;12.20;99.90;;;;;;5071587;28;20469;-75
2021/01/22 04:22:36;;;;;;;33.97;5.75;;;12.20;99.90;;;;;;5071759;28;20093;-76
2021/01/22 04:25:02;;;;;;;21.65;4.60;;;12.10;99.90;;;;;;5071711;28;20029;-76
2021/01/22 04:27:27;;;;;;;24.30;4.93;;;12.00;99.90;;;;;;5071260;28;20385;-77
2021/01/22 04:29:53;;;;;;;17.85;4.55;;;11.90;99.90;;;;;;5071301;28;20078;-75
2021/01/22 04:32:19;;;;;;;29.52;5.28;;;11.70;99.90;;;;;;5071132;28;20024;-74
2021/01/22 04:34:44;;;;;;;27.80;4.43;;;11.60;99.90;;;;;;5071084;28;20024;-76
2021/01/22 04:37:10;;;;;;;34.72;7.05;;;11.60;99.90;;;;;;5071148;28;20044;-75
2021/01/22 04:39:36;;;;;;;22.35;5.25;;;11.50;99.90;;;;;;5070823;28;20017;-75
2021/01/22 04:42:02;;;;;;;33.35;5.28;;;11.40;99.90;;;;;;5071443;28;20428;-73
2021/01/22 04:44:28;;;;;;;21.65;4.53;;;11.40;99.90;;;;;;5071354;28;20017;-77
2021/01/22 04:46:55;;;;;;;18.98;4.95;;;11.40;99.90;;;;;;5071299;28;20473;-75
2021/01/22 04:49:24;;;;;;;27.17;5.40;;;11.40;99.90;;;;;;5071154;28;20385;-75
2021/01/22 04:51:51;;;;;;;25.77;5.32;;;11.40;99.90;;;;;;5070986;28;20036;-75
2021/01/22 04:54:29;;;;;;;31.52;5.90;;;11.40;99.90;;;;;;5070534;28;20119;-76
2021/01/22 04:56:58;;;;;;;35.15;5.50;;;11.30;99.90;;;;;;5070887;28;20024;-76
2021/01/22 04:59:35;;;;;;;18.40;5.60;;;11.40;99.90;;;;;;5071158;28;20031;-76
2021/01/22 05:02:01;;;;;;;21.83;5.55;;;11.40;99.90;;;;;;5071023;28;20098;-76
2021/01/22 05:04:27;;;;;;;19.85;5.35;;;11.50;99.90;;;;;;5071118;28;20442;-76
2021/01/22 05:06:53;;;;;;;21.95;4.68;;;11.50;99.90;;;;;;5070807;28;20048;-76
2021/01/22 05:09:19;;;;;;;19.75;5.07;;;11.50;99.90;;;;;;5071064;28;20129;-76
2021/01/22 05:11:51;;;;;;;19.30;5.13;;;11.60;99.90;;;;;;5070807;28;20060;-75
2021/01/22 05:14:17;;;;;;;;;;;11.70;99.90;;;;;;5071557;28;20039;-76
2021/01/22 05:17:02;;;;;;;20.33;4.63;;;11.70;99.90;;;;;;5070939;28;20296;-75
2021/01/22 05:19:28;;;;;;;24.10;4.60;;;11.80;99.90;;;;;;5070408;28;20020;-75
2021/01/22 05:21:54;;;;;;;38.50;5.80;;;11.80;99.90;;;;;;5069956;28;20020;-76
2021/01/22 05:24:21;;;;;;;27.58;4.70;;;11.80;99.90;;;;;;5071059;28;20051;-76
2021/01/22 05:26:46;;;;;;;27.15;5.47;;;11.90;99.90;;;;;;5071268;28;20449;-75
2021/01/22 05:29:16;;;;;;;36.22;6.60;;;11.90;99.90;;;;;;5071027;28;20044;-76
2021/01/22 05:31:41;;;;;;;18.73;4.57;;;11.90;99.90;;;;;;5070819;28;20429;-74
2021/01/22 05:34:07;;;;;;;25.92;4.15;;;11.90;99.90;;;;;;5070647;28;20044;-76
2021/01/22 05:36:33;;;;;;;34.30;5.30;;;11.90;99.90;;;;;;5070919;28;20024;-76
2021/01/22 05:39:00;;;;;;;23.38;5.07;;;11.90;99.90;;;;;;5070417;28;20028;-75
2021/01/22 05:41:29;;;;;;;33.50;5.00;;;11.90;99.90;;;;;;5069571;28;20068;-76
2021/01/22 05:43:56;;;;;;;24.02;4.82;;;11.90;99.90;;;;;;5070262;28;20024;-77
2021/01/22 05:46:24;;;;;;;27.83;5.53;;;11.90;99.90;;;;;;5061231;28;20035;-76
2021/01/22 05:49:12;;;;;;;24.80;4.30;;;12.00;99.90;;;;;;5070269;28;20032;-72
2021/01/22 05:51:38;;;;;;;23.30;4.82;;;12.00;99.90;;;;;;5064458;28;20106;-75
2021/01/22 05:54:04;;;;;;;34.95;4.57;;;12.00;99.90;;;;;;5070560;28;20039;-77
2021/01/22 05:56:30;;;;;;;28.63;5.65;;;12.00;99.90;;;;;;5070493;28;20067;-76
2021/01/22 05:58:57;;;;;;;30.70;4.85;;;12.10;99.90;;;;;;5072832;28;20016;-77
2021/01/22 06:01:26;;;;;;;21.58;4.80;;;12.10;99.90;;;;;;5073787;28;20103;-77
2021/01/22 06:04:05;;;;;;;30.23;4.80;;;12.10;99.90;;;;;;5074235;28;20052;-75
2021/01/22 06:06:32;;;;;;;29.80;4.45;;;12.10;99.90;;;;;;5074269;28;20047;-75
2021/01/22 06:08:59;;;;;;;21.85;4.85;;;12.10;99.90;;;;;;5073963;28;20099;-75
2021/01/22 06:11:32;;;;;;;31.58;5.25;;;12.10;99.90;;;;;;5073438;28;20025;-72
2021/01/22 06:14:07;;;;;;;28.55;4.90;;;12.20;99.90;;;;;;5073231;28;20037;-76
2021/01/22 06:16:36;;;;;;;27.27;4.43;;;12.20;99.90;;;;;;5073587;28;20016;-72
2021/01/22 06:19:06;;;;;;;44.28;6.03;;;12.20;99.90;;;;;;5073538;28;20406;-76
2021/01/22 06:21:35;;;;;;;21.40;3.72;;;12.20;99.90;;;;;;5073233;28;20013;-76
2021/01/22 06:24:03;;;;;;;38.03;6.15;;;12.20;99.90;;;;;;5073712;28;20096;-76
2021/01/22 06:26:39;;;;;;;27.08;5.22;;;12.30;99.90;;;;;;5072617;28;20077;-75
2021/01/22 06:29:06;;;;;;;26.73;4.88;;;12.30;99.90;;;;;;5073022;28;20046;-73
2021/01/22 06:31:33;;;;;;;37.50;5.65;;;12.30;99.90;;;;;;5072158;28;20028;-75
2021/01/22 06:34:00;;;;;;;22.65;4.22;;;12.40;99.90;;;;;;5073005;28;20028;-75
2021/01/22 06:36:26;;;;;;;29.85;5.05;;;12.40;99.90;;;;;;5071828;28;20024;-73
2021/01/22 06:38:53;;;;;;;36.20;7.07;;;12.40;99.90;;;;;;5072779;28;20046;-73
2021/01/22 06:41:27;;;;;;;27.67;6.40;;;12.40;99.90;;;;;;5071884;28;20377;-77
2021/01/22 06:43:54;;;;;;;30.05;5.35;;;12.30;99.90;;;;;;5072558;28;20056;-76
2021/01/22 06:46:25;;;;;;;38.65;5.35;;;12.30;99.90;;;;;;5072953;28;20100;-77
2021/01/22 06:48:55;;;;;;;31.80;5.53;;;12.40;99.90;;;;;;5073282;28;20052;-76
2021/01/22 06:51:22;;;;;;;36.55;6.57;;;12.40;99.90;;;;;;5073303;28;20390;-77
2021/01/22 06:54:07;;;;;;;26.20;4.13;;;12.40;99.90;;;;;;5073138;28;20477;-76
2021/01/22 06:56:35;;;;;;;26.35;5.45;;;12.50;99.90;;;;;;5059805;28;20078;-75
2021/01/22 06:59:19;;;;;;;36.20;6.25;;;12.50;99.90;;;;;;5068227;28;20027;-73
2021/01/22 07:01:45;;;;;;;39.92;5.47;;;12.50;99.90;;;;;;5066341;28;20116;-74
2021/01/22 07:04:37;;;;;;;44.90;5.53;;;12.50;99.90;;;;;;5073346;28;20090;-76
2021/01/22 07:07:07;;;;;;;33.03;6.03;;;12.60;99.90;;;;;;5058850;28;20112;-75
2021/01/22 07:09:42;;;;;;;40.25;5.72;;;12.50;99.90;;;;;;5072885;28;20456;-77
2021/01/22 07:12:12;;;;;;;44.60;7.20;;;12.60;99.90;;;;;;5051716;28;20031;-76
2021/01/22 07:14:42;;;;;;;39.72;6.03;;;12.60;99.90;;;;;;5068370;28;20550;-78
2021/01/22 07:17:19;;;;;;;37.03;5.93;;;12.60;99.90;;;;;;5072291;28;20039;-72
2021/01/22 07:20:09;;;;;;;42.80;6.95;;;12.60;99.90;;;;;;5072105;28;20016;-76
2021/01/22 07:22:48;;;;;;;23.50;5.88;;;12.60;99.90;;;;;;5062641;28;20032;-76
2021/01/22 07:25:27;;;;;;;40.20;6.20;;;12.60;99.90;;;;;;5071402;28;20027;-73
2021/01/22 07:27:53;;;;;;;32.80;6.30;;;12.50;99.90;;;;;;5072513;28;20028;-74
2021/01/22 07:30:19;;;;;;;34.72;6.13;;;12.60;99.90;;;;;;5069143;28;20031;-73
2021/01/22 07:32:48;;;;;;;34.38;6.60;;;12.50;99.90;;;;;;5072850;28;20498;-71
2021/01/22 07:35:24;;;;;;;37.05;6.50;;;12.50;99.90;;;;;;5072372;28;20496;-70
2021/01/22 07:37:51;;;;;;;35.40;5.57;;;12.50;99.90;;;;;;5064541;28;20036;-71
2021/01/22 07:40:18;;;;;;;38.03;5.18;;;12.50;99.90;;;;;;5072162;28;20016;-72
2021/01/22 07:42:45;;;;;;;46.25;8.90;;;12.50;99.90;;;;;;5072610;28;20025;-72
2021/01/22 07:45:15;;;;;;;38.83;5.43;;;12.50;99.90;;;;;;5072118;28;20036;-72
2021/01/22 07:47:43;;;;;;;40.03;5.85;;;12.50;99.90;;;;;;5072137;28;20032;-72
2021/01/22 07:50:13;;;;;;;40.58;6.22;;;12.60;99.90;;;;;;5071435;28;20543;-75
2021/01/22 07:52:47;;;;;;;53.63;6.55;;;12.60;99.90;;;;;;5064992;28;20028;-72
2021/01/22 07:55:19;;;;;;;48.78;5.75;;;12.60;99.90;;;;;;5071037;28;20052;-71
2021/01/22 07:57:45;;;;;;;39.75;6.68;;;12.60;99.90;;;;;;5070165;28;20496;-73
2021/01/22 08:00:15;;;;;;;45.42;5.38;;;12.60;99.90;;;;;;5070836;28;20151;-78
2021/01/22 08:02:57;;;;;;;47.88;6.65;;;12.70;99.90;;;;;;5069618;28;20143;-73
2021/01/22 08:05:30;;;;;;;;;;;12.70;99.90;;;;;;5069274;28;20020;-70
2021/01/22 08:07:56;;;;;;;43.95;7.18;;;12.70;99.90;;;;;;5070902;28;19913;-73
2021/01/22 08:10:29;;;;;;;57.38;6.50;;;12.70;99.90;;;;;;5070866;28;20021;-70
2021/01/22 08:13:00;;;;;;;42.10;6.43;;;12.70;99.90;;;;;;5066599;28;20020;-70
2021/01/22 08:15:27;;;;;;;40.05;5.68;;;12.70;99.90;;;;;;5068323;28;20021;-70
2021/01/22 08:17:54;;;;;;;53.08;7.70;;;12.80;99.90;;;;;;5065861;28;20033;-70
2021/01/22 08:20:21;;;;;;;39.65;7.30;;;12.80;99.90;;;;;;5068876;28;20027;-73
2021/01/22 08:22:56;;;;;;;46.42;8.65;;;12.80;99.90;;;;;;5070514;28;20024;-72
2021/01/22 08:25:39;;;;;;;39.55;6.35;;;12.80;99.90;;;;;;5070022;28;20147;-73
2021/01/22 08:28:08;;;;;;;32.88;5.38;;;12.90;99.90;;;;;;5070133;28;20108;-73
2021/01/22 08:30:35;;;;;;;42.40;6.80;;;12.90;99.90;;;;;;5069685;28;20135;-72
2021/01/22 08:33:02;;;;;;;50.35;6.55;;;12.90;99.90;;;;;;5069711;28;20433;-73
2021/01/22 08:35:29;;;;;;;46.17;6.72;;;12.90;99.90;;;;;;5070157;28;20059;-73
2021/01/22 08:37:56;;;;;;;36.15;6.22;;;12.90;99.90;;;;;;5070332;28;20074;-71
2021/01/22 08:40:35;;;;;;;52.42;6.90;;;12.80;99.90;;;;;;5067834;28;20020;-73
2021/01/22 08:43:03;;;;;;;36.75;7.95;;;12.90;99.90;;;;;;5069190;28;20020;-73
2021/01/22 08:45:29;;;;;;;28.73;5.32;;;12.90;99.90;;;;;;5070569;28;20033;-71
2021/01/22 08:47:55;;;;;;;45.90;6.38;;;12.90;99.90;;;;;;5069784;28;20023;-73
2021/01/22 08:50:21;;;;;;;45.92;6.50;;;13.00;99.90;;;;;;5069735;28;20028;-70
2021/01/22 08:53:09;;;;;;;47.65;6.95;;;13.00;99.90;;;;;;5070261;28;20024;-74
2021/01/22 08:55:36;;;;;;;40.28;7.32;;;13.00;99.90;;;;;;5069685;28;20028;-75
2021/01/22 08:58:05;;;;;;;48.67;6.00;;;13.00;99.90;;;;;;5068883;28;20024;-74
2021/01/22 09:00:31;;;;;;;57.25;6.22;;;13.00;99.90;;;;;;5070457;28;20032;-77
2021/01/22 09:02:57;;;;;;;37.97;5.85;;;13.00;99.90;;;;;;5070015;28;20101;-78
2021/01/22 09:05:23;;;;;;;45.55;6.53;;;13.00;99.90;;;;;;5069734;28;20025;-77
2021/01/22 09:08:10;;;;;;;56.47;8.32;;;13.00;99.90;;;;;;5070106;28;20041;-70
2021/01/22 09:10:42;;;;;;;33.53;5.18;;;13.10;99.90;;;;;;5071400;28;20109;-71
2021/01/22 09:13:15;;;;;;;37.58;6.75;;;13.10;99.90;;;;;;5069700;28;20046;-76
2021/01/22 09:15:42;;;;;;;34.53;6.13;;;13.10;99.90;;;;;;5070209;28;20039;-71
2021/01/22 09:18:21;;;;;;;29.05;5.80;;;13.10;99.90;;;;;;5069698;28;20023;-75
2021/01/22 09:21:04;;;;;;;35.38;6.65;;;13.10;99.90;;;;;;5069891;28;20052;-70
2021/01/22 09:23:30;;;;;;;37.97;6.28;;;13.10;99.90;;;;;;5067073;28;20017;-71
2021/01/22 09:25:57;;;;;;;39.00;7.35;;;13.10;99.90;;;;;;5070149;28;20025;-71
2021/01/22 09:28:22;;;;;;;40.50;7.85;;;13.10;99.90;;;;;;5070126;28;20021;-71
2021/01/22 09:30:48;;;;;;;38.38;7.93;;;13.10;99.90;;;;;;5070675;28;20514;-71
2021/01/22 09:33:14;;;;;;;49.40;8.38;;;13.10;99.90;;;;;;5073235;28;20036;-74
2021/01/22 09:35:40;;;;;;;45.22;7.13;;;13.10;99.90;;;;;;5073899;28;20023;-71
2021/01/22 09:38:06;;;;;;;43.85;7.35;;;13.10;99.90;;;;;;5074038;28;20103;-71
2021/01/22 09:40:32;;;;;;;42.22;5.72;;;13.10;99.90;;;;;;5074136;28;20093;-72
2021/01/22 09:42:57;;;;;;;32.97;6.45;;;13.10;99.90;;;;;;5062030;28;21889;-76
2021/01/22 09:45:24;;;;;;;46.13;6.22;;;13.10;99.90;;;;;;5057107;28;20382;-77
2021/01/22 09:47:49;;;;;;;39.13;7.43;;;13.10;99.90;;;;;;5055480;28;20028;-76
2021/01/22 09:50:17;;;;;;;39.42;7.20;;;13.20;99.90;;;;;;5060234;28;20021;-76
2021/01/22 09:52:43;;;;;;;39.60;7.03;;;13.10;99.90;;;;;;5069155;28;20029;-77
2021/01/22 09:55:11;;;;;;;33.00;6.30;;;13.20;99.90;;;;;;5073594;28;20488;-77
2021/01/22 09:57:37;;;;;;;36.00;6.72;;;13.10;99.90;;;;;;5072492;28;20492;-73
2021/01/22 10:00:08;;;;;;;33.38;5.20;;;13.10;99.90;;;;;;5073518;28;20033;-73
2021/01/22 10:02:34;;;;;;;40.67;7.33;;;13.10;99.90;;;;;;5072392;28;20056;-73
2021/01/22 10:05:00;;;;;;;36.10;6.38;;;13.10;99.90;;;;;;5071157;28;20020;-72
2021/01/22 10:07:26;;;;;;;33.97;6.47;;;13.20;99.90;;;;;;5071938;28;20099;-73
2021/01/22 10:09:51;;;;;;;34.30;5.78;;;13.20;99.90;;;;;;5072417;28;20028;-72
2021/01/22 10:12:20;;;;;;;47.65;7.28;;;13.20;99.90;;;;;;5071852;28;20028;-72
2021/01/22 10:14:46;;;;;;;39.25;6.28;;;13.20;99.90;;;;;;5070664;28;20054;-73
2021/01/22 10:17:11;;;;;;;45.70;7.18;;;13.20;99.90;;;;;;5071811;28;20487;-73
2021/01/22 10:19:37;;;;;;;58.03;10.35;;;13.20;99.90;;;;;;5072495;28;20047;-73
2021/01/22 10:22:03;;;;;;;59.42;13.52;;;13.20;99.90;;;;;;5072456;28;20027;-74
2021/01/22 10:24:29;;;;;;;55.85;12.95;;;13.20;99.90;;;;;;5072120;28;20024;-72
2021/01/22 10:26:55;;;;;;;66.20;12.77;;;13.20;99.90;;;;;;5072834;28;20417;-72
2021/01/22 10:29:21;;;;;;;67.93;13.02;;;13.20;99.90;;;;;;5065796;28;20021;-72
2021/01/22 10:31:46;;;;;;;45.42;9.13;;;13.20;99.90;;;;;;5071064;28;20078;-72
2021/01/22 10:34:12;;;;;;;50.72;11.50;;;13.20;99.90;;;;;;5070709;28;20097;-71
2021/01/22 10:36:38;;;;;;;49.90;11.45;;;13.20;99.90;;;;;;5071396;28;20055;-72
2021/01/22 10:39:04;;;;;;;65.15;14.00;;;13.20;99.90;;;;;;5072660;28;20461;-72
2021/01/22 10:41:31;;;;;;;53.17;13.50;;;13.20;99.90;;;;;;5073013;28;20042;-73
2021/01/22 10:43:57;;;;;;;60.10;12.90;;;13.20;99.90;;;;;;5070434;28;20504;-73
2021/01/22 10:46:22;;;;;;;67.93;14.30;;;13.20;99.90;;;;;;5072803;28;20052;-72
2021/01/22 10:48:48;;;;;;;57.38;12.45;;;13.20;99.90;;;;;;5072182;28;20157;-72
2021/01/22 10:51:14;;;;;;;45.58;11.45;;;13.20;99.90;;;;;;5072319;28;20913;-77
2021/01/22 10:53:40;;;;;;;54.75;12.20;;;13.10;99.90;;;;;;5072069;28;20036;-76
2021/01/22 10:56:06;;;;;;;55.78;11.60;;;13.20;99.90;;;;;;5072184;28;20017;-76
2021/01/22 10:58:32;;;;;;;32.80;9.95;;;13.20;99.90;;;;;;5069966;28;20063;-76
2021/01/22 11:00:58;;;;;;;48.92;10.15;;;13.20;99.90;;;;;;5072126;28;20059;-76
2021/01/22 11:03:24;;;;;;;47.72;9.52;;;13.20;99.90;;;;;;5071467;28;20047;-77
2021/01/22 11:05:50;;;;;;;46.65;10.20;;;13.20;99.90;;;;;;5058586;28;20025;-73
2021/01/22 11:08:16;;;;;;;43.15;10.50;;;13.20;99.90;;;;;;5070741;28;20376;-75
2021/01/22 11:10:41;;;;;;;50.65;9.95;;;13.20;99.90;;;;;;5072143;28;20029;-73
2021/01/22 11:13:07;;;;;;;32.80;9.00;;;13.20;99.90;;;;;;5071779;28;20032;-72
2021/01/22 11:15:37;;;;;;;40.45;8.27;;;13.20;99.90;;;;;;5070779;28;20026;-72
2021/01/22 11:18:03;;;;;;;32.10;9.05;;;13.20;99.90;;;;;;5071931;28;20081;-73
2021/01/22 11:20:29;;;;;;;34.00;9.85;;;13.20;99.90;;;;;;5069046;28;20040;-72
2021/01/22 11:22:55;;;;;;;48.42;6.72;;;13.30;99.90;;;;;;5068497;28;20129;-72
2021/01/22 11:25:23;;;;;;;30.33;6.50;;;13.30;99.90;;;;;;5071294;28;20107;-72
2021/01/22 11:27:49;;;;;;;45.13;7.35;;;13.30;99.90;;;;;;5071602;28;20024;-73
2021/01/22 11:30:16;;;;;;;41.00;7.68;;;13.30;99.90;;;;;;5065748;28;20433;-74
2021/01/22 11:32:42;;;;;;;37.20;9.77;;;13.30;99.90;;;;;;5061977;28;20135;-73
2021/01/22 11:35:09;;;;;;;46.97;13.70;;;13.40;99.90;;;;;;5061126;28;20117;-73
2021/01/22 11:37:39;;;;;;;59.53;15.65;;;13.40;99.90;;;;;;5069984;28;20516;-74
2021/01/22 11:40:06;;;;;;;59.08;17.00;;;13.30;99.90;;;;;;5071079;28;20021;-73
2021/01/22 11:42:32;;;;;;;56.25;14.93;;;13.30;99.90;;;;;;5070616;28;20469;-73
2021/01/22 11:44:58;;;;;;;51.60;16.00;;;13.30;99.90;;;;;;5071535;28;20085;-73
2021/01/22 11:47:24;;;;;;;45.00;13.55;;;13.30;99.90;;;;;;5070600;28;20028;-75
2021/01/22 11:49:50;;;;;;;41.42;10.38;;;13.30;99.90;;;;;;5072093;28;20481;-73
2021/01/22 11:52:16;;;;;;;38.08;9.43;;;13.30;99.90;;;;;;5069048;28;20107;-77
2021/01/22 11:54:43;;;;;;;39.55;9.48;;;13.30;99.90;;;;;;5070849;28;20103;-75
2021/01/22 11:57:09;;;;;;;32.88;7.88;;;13.30;99.90;;;;;;5070141;28;20020;-73
2021/01/22 11:59:34;;;;;;;33.70;6.65;;;13.40;99.90;;;;;;5070175;28;20025;-75
2021/01/22 12:02:00;;;;;;;51.90;7.80;;;13.40;99.90;;;;;;5069973;28;20569;-72
2021/01/22 12:04:26;;;;;;;23.38;7.13;;;13.40;99.90;;;;;;5070486;28;20078;-72
2021/01/22 12:06:52;;;;;;;32.30;10.60;;;13.40;99.90;;;;;;5071317;28;20111;-72
2021/01/22 12:09:19;;;;;;;24.75;6.93;;;13.50;99.90;;;;;;5070831;28;20512;-72
2021/01/22 12:11:47;;;;;;;36.40;7.20;;;13.50;99.90;;;;;;5071163;28;20469;-72
2021/01/22 12:14:12;;;;;;;32.97;7.55;;;13.60;99.90;;;;;;5070354;28;20051;-72
2021/01/22 12:16:38;;;;;;;35.67;7.88;;;13.60;99.90;;;;;;5069781;28;20024;-73
2021/01/22 12:19:04;;;;;;;22.20;6.82;;;13.60;99.90;;;;;;5070022;28;20534;-73
2021/01/22 12:21:30;;;;;;;30.08;7.68;;;13.70;99.90;;;;;;5070863;28;20096;-74
2021/01/22 12:23:56;;;;;;;25.48;5.75;;;13.80;99.90;;;;;;5070560;28;20020;-74
2021/01/22 12:26:22;;;;;;;48.15;9.77;;;13.80;99.90;;;;;;5071067;28;20092;-74
2021/01/22 12:28:49;;;;;;;23.67;3.97;;;14.00;99.90;;;;;;5070971;28;20112;-73
2021/01/22 12:31:15;;;;;;;24.95;4.15;;;14.10;99.90;;;;;;5068992;28;20025;-73
2021/01/22 12:33:41;;;;;;;18.85;3.42;;;14.20;99.90;;;;;;5071144;28;20118;-73
2021/01/22 12:36:08;;;;;;;14.80;3.88;;;14.30;99.90;;;;;;5069908;28;20380;-73